createdAt,value
2022-12-02T00:01:52.846Z,15.43
2022-12-02T00:04:38.125Z,13.60
2022-12-02T00:07:27.120Z,13.33
2022-12-02T00:10:39.257Z,12.87
2022-12-02T00:13:29.514Z,13.07
2022-12-02T00:16:23.479Z,14.10
2022-12-02T00:19:11.334Z,13.27
2022-12-02T00:21:56.698Z,13.80
2022-12-02T00:24:43.059Z,14.40
2022-12-02T00:27:31.022Z,12.60
2022-12-02T00:30:18.938Z,13.63
2022-12-02T00:33:04.525Z,14.53
2022-12-02T00:35:49.744Z,14.47
2022-12-02T00:38:35.436Z,13.70
2022-12-02T00:41:21.187Z,13.90
2022-12-02T00:44:25.254Z,15.57
2022-12-02T00:47:10.918Z,12.33
2022-12-02T00:49:56.435Z,15.17
2022-12-02T00:52:42.012Z,13.90
2022-12-02T00:55:29.718Z,14.80
2022-12-02T00:58:14.919Z,14.10
2022-12-02T01:01:00.452Z,13.23
2022-12-02T01:03:46.459Z,12.80
2022-12-02T01:06:32.114Z,14.30
2022-12-02T01:09:19.544Z,15.20
2022-12-02T01:12:05.136Z,13.90
2022-12-02T01:14:53.668Z,14.43
2022-12-02T01:17:42.131Z,16.03
2022-12-02T01:20:27.759Z,14.80
2022-12-02T01:23:14.129Z,15.57
2022-12-02T01:26:02.602Z,13.17
2022-12-02T01:28:52.998Z,15.63
2022-12-02T01:31:40.602Z,13.93
2022-12-02T01:34:28.457Z,13.60
2022-12-02T01:37:13.857Z,15.10
2022-12-02T01:40:01.853Z,13.30
2022-12-02T01:42:48.575Z,15.17
2022-12-02T01:45:37.014Z,13.87
2022-12-02T01:48:22.724Z,15.50
2022-12-02T01:51:08.498Z,13.50
2022-12-02T01:53:54.034Z,14.10
2022-12-02T01:56:39.511Z,13.47
2022-12-02T01:59:28.911Z,12.53
2022-12-02T02:02:29.792Z,13.60
2022-12-02T02:05:19.693Z,12.17
2022-12-02T02:08:09.736Z,13.57
2022-12-02T02:10:55.072Z,13.80
2022-12-02T02:13:44.000Z,13.90
2022-12-02T02:16:29.450Z,14.13
2022-12-02T02:19:16.759Z,13.57
2022-12-02T02:22:07.474Z,13.93
2022-12-02T02:24:53.264Z,14.30
2022-12-02T02:27:39.494Z,14.30
2022-12-02T02:30:27.490Z,13.73
2022-12-02T02:33:18.491Z,15.23
2022-12-02T02:36:04.957Z,16.10
2022-12-02T02:38:50.413Z,13.33
2022-12-02T02:41:38.496Z,14.60
2022-12-02T02:44:28.779Z,14.93
2022-12-02T02:47:14.555Z,14.53
2022-12-02T02:50:02.605Z,12.10
2022-12-02T02:52:48.237Z,14.10
2022-12-02T02:55:34.724Z,13.57
2022-12-02T02:58:25.682Z,13.93
2022-12-02T03:01:26.775Z,12.37
2022-12-02T03:04:18.866Z,14.80
2022-12-02T03:07:04.251Z,13.80
2022-12-02T03:09:50.442Z,13.77
2022-12-02T03:12:36.269Z,14.27
2022-12-02T03:15:24.719Z,13.97
2022-12-02T03:18:10.793Z,13.10
2022-12-02T03:20:58.815Z,12.60
2022-12-02T03:23:47.514Z,13.57
2022-12-02T03:26:34.536Z,11.63
2022-12-02T03:29:22.355Z,12.43
2022-12-02T03:32:10.916Z,13.00
2022-12-02T03:34:56.644Z,11.57
2022-12-02T03:37:42.642Z,12.17
2022-12-02T03:40:28.366Z,14.20
2022-12-02T03:43:16.712Z,12.03
2022-12-02T03:46:03.910Z,12.90
2022-12-02T03:48:50.064Z,11.70
2022-12-02T03:51:35.816Z,12.40
2022-12-02T03:54:25.745Z,11.17
2022-12-02T03:57:13.260Z,12.20
2022-12-02T03:59:58.498Z,11.60
2022-12-02T04:02:44.179Z,12.07
2022-12-02T04:05:32.366Z,10.13
2022-12-02T04:08:18.092Z,12.40
2022-12-02T04:11:03.497Z,10.60
2022-12-02T04:13:50.825Z,12.20
2022-12-02T04:16:38.738Z,10.70
2022-12-02T04:19:25.002Z,13.10
2022-12-02T04:22:10.355Z,10.60
2022-12-02T04:24:58.896Z,10.80
2022-12-02T04:27:46.738Z,10.80
2022-12-02T04:30:31.980Z,10.97
2022-12-02T04:33:17.646Z,9.30
2022-12-02T04:36:03.245Z,9.97
2022-12-02T04:38:48.529Z,11.00
2022-12-02T04:41:36.533Z,10.53
2022-12-02T04:44:24.238Z,11.90
2022-12-02T04:47:09.665Z,10.77
2022-12-02T04:49:55.121Z,10.90
2022-12-02T04:52:42.433Z,10.07
2022-12-02T04:55:27.817Z,11.33
2022-12-02T04:58:14.546Z,10.27
2022-12-02T05:00:59.969Z,9.77
2022-12-02T05:03:46.482Z,9.47
2022-12-02T05:06:32.016Z,9.80
2022-12-02T05:09:19.319Z,10.50
2022-12-02T05:12:04.538Z,9.83
2022-12-02T05:14:52.006Z,10.93
2022-12-02T05:17:41.893Z,9.57
2022-12-02T05:20:29.769Z,10.10
2022-12-02T05:23:15.197Z,10.10
2022-12-02T05:26:03.437Z,8.13
2022-12-02T05:28:48.532Z,8.00
2022-12-02T05:31:37.137Z,8.70
2022-12-02T05:34:22.863Z,8.53
2022-12-02T05:37:10.813Z,9.13
2022-12-02T05:39:58.507Z,9.53
2022-12-02T05:42:44.649Z,8.70
2022-12-02T05:45:30.464Z,8.67
2022-12-02T05:48:18.832Z,9.83
2022-12-02T05:51:10.513Z,8.90
2022-12-02T05:53:55.810Z,8.67
2022-12-02T05:56:41.219Z,8.27
2022-12-02T05:59:29.593Z,9.07
2022-12-02T06:02:40.399Z,9.13
2022-12-02T06:05:37.602Z,9.30
2022-12-02T06:08:32.830Z,8.80
2022-12-02T06:11:34.504Z,7.53
2022-12-02T06:14:25.157Z,9.13
2022-12-02T06:17:18.279Z,7.60
2022-12-02T06:20:05.892Z,8.03
2022-12-02T06:22:53.275Z,8.40
2022-12-02T06:25:41.331Z,8.17
2022-12-02T06:28:31.436Z,8.53
2022-12-02T06:31:33.973Z,9.30
2022-12-02T06:34:34.112Z,8.17
2022-12-02T06:37:25.486Z,8.90
2022-12-02T06:40:29.353Z,7.77
2022-12-02T06:43:26.290Z,8.20
2022-12-02T06:46:19.447Z,8.67
2022-12-02T06:49:26.278Z,8.53
2022-12-02T06:52:23.045Z,9.07
2022-12-02T06:55:28.624Z,10.70
2022-12-02T06:58:33.291Z,8.07
2022-12-02T07:01:24.738Z,7.60
2022-12-02T07:04:11.062Z,9.00
2022-12-02T07:07:00.430Z,9.83
2022-12-02T07:09:49.050Z,9.87
2022-12-02T07:12:39.184Z,9.83
2022-12-02T07:15:38.774Z,9.47
2022-12-02T07:18:26.490Z,10.17
2022-12-02T07:21:16.026Z,9.10
2022-12-02T07:24:04.258Z,9.20
2022-12-02T07:26:52.917Z,8.53
2022-12-02T07:29:38.134Z,8.43
2022-12-02T07:32:24.285Z,8.80
2022-12-02T07:35:12.004Z,8.30
2022-12-02T07:37:58.204Z,8.53
2022-12-02T07:40:46.930Z,7.43
2022-12-02T07:43:32.272Z,9.27
2022-12-02T07:46:17.581Z,9.13
2022-12-02T07:49:03.561Z,9.57
2022-12-02T07:51:49.351Z,8.93
2022-12-02T07:54:37.716Z,7.40
2022-12-02T07:57:26.045Z,9.60
2022-12-02T08:00:14.334Z,8.30
2022-12-02T08:02:59.686Z,7.87
2022-12-02T08:05:45.731Z,8.47
2022-12-02T08:08:31.225Z,9.40
2022-12-02T08:11:16.429Z,8.40
2022-12-02T08:14:02.298Z,8.93
2022-12-02T08:16:50.426Z,9.10
2022-12-02T08:19:36.091Z,8.13
2022-12-02T08:22:21.558Z,9.10
2022-12-02T08:25:10.325Z,9.33
2022-12-02T08:27:55.815Z,8.03
2022-12-02T08:30:41.751Z,7.57
2022-12-02T08:33:27.137Z,8.50
2022-12-02T08:36:12.911Z,9.20
2022-12-02T08:38:58.332Z,8.40
2022-12-02T08:41:43.689Z,8.63
2022-12-02T08:44:29.272Z,8.40
2022-12-02T08:47:14.851Z,7.80
2022-12-02T08:50:04.328Z,8.47
2022-12-02T08:52:57.907Z,8.47
2022-12-02T08:55:43.722Z,9.23
2022-12-02T08:58:34.032Z,7.63
2022-12-02T09:01:19.648Z,8.70
2022-12-02T09:04:05.663Z,8.97
2022-12-02T09:06:53.707Z,9.53
2022-12-02T09:09:41.325Z,9.80
2022-12-02T09:12:27.978Z,9.13
2022-12-02T09:15:13.537Z,8.40
2022-12-02T09:17:59.094Z,8.30
2022-12-02T09:20:44.891Z,8.53
2022-12-02T09:23:30.516Z,9.50
2022-12-02T09:26:15.954Z,9.93
2022-12-02T09:29:01.510Z,9.40
2022-12-02T09:31:47.602Z,9.20
2022-12-02T09:34:35.707Z,9.57
2022-12-02T09:37:24.283Z,8.50
2022-12-02T09:40:13.745Z,8.97
2022-12-02T09:42:59.640Z,9.40
2022-12-02T09:45:47.396Z,8.80
2022-12-02T09:48:33.218Z,8.80
2022-12-02T09:51:21.254Z,9.43
2022-12-02T09:54:06.602Z,9.17
2022-12-02T09:56:51.957Z,9.00
2022-12-02T09:59:37.777Z,8.60
2022-12-02T10:02:50.984Z,9.80
2022-12-02T10:05:38.590Z,10.27
2022-12-02T10:08:28.446Z,9.30
2022-12-02T10:11:27.369Z,8.80
2022-12-02T10:14:14.508Z,9.40
2022-12-02T10:17:00.108Z,9.10
2022-12-02T10:19:48.042Z,9.57
2022-12-02T10:22:33.687Z,9.23
2022-12-02T10:25:32.495Z,9.67
2022-12-02T10:28:26.032Z,10.10
2022-12-02T10:31:14.276Z,9.23
2022-12-02T10:34:04.710Z,8.80
2022-12-02T10:36:50.966Z,8.87
2022-12-02T10:39:38.790Z,9.90
2022-12-02T10:42:26.782Z,10.07
2022-12-02T10:45:21.786Z,7.73
2022-12-02T10:48:17.421Z,9.30
2022-12-02T10:51:03.052Z,12.03
2022-12-02T10:53:52.670Z,9.80
2022-12-02T10:56:37.804Z,9.07
2022-12-02T10:59:24.677Z,9.67
2022-12-02T11:02:25.947Z,10.80
2022-12-02T11:05:24.402Z,11.10
2022-12-02T11:08:29.731Z,10.30
2022-12-02T11:11:40.524Z,11.07
2022-12-02T11:14:41.057Z,9.90
2022-12-02T11:17:52.338Z,11.40
2022-12-02T11:20:47.241Z,11.60
2022-12-02T11:23:34.196Z,11.03
2022-12-02T11:26:22.540Z,12.77
2022-12-02T11:29:16.846Z,11.63
2022-12-02T11:32:19.150Z,11.20
2022-12-02T11:35:21.975Z,12.10
2022-12-02T11:38:26.452Z,13.00
2022-12-02T11:41:11.874Z,10.93
2022-12-02T11:44:00.277Z,12.07
2022-12-02T11:47:02.365Z,12.83
2022-12-02T11:49:50.320Z,11.87
2022-12-02T11:52:40.241Z,12.27
2022-12-02T11:55:35.674Z,12.87
2022-12-02T11:58:28.731Z,12.57
2022-12-02T12:01:17.980Z,11.70
2022-12-02T12:04:06.019Z,12.80
2022-12-02T12:07:00.861Z,12.67
2022-12-02T12:09:58.132Z,11.83
2022-12-02T12:13:12.288Z,12.63
2022-12-02T12:16:02.353Z,11.77
2022-12-02T12:18:50.797Z,12.50
2022-12-02T12:21:42.352Z,12.73
2022-12-02T12:24:31.548Z,12.27
2022-12-02T12:27:37.211Z,12.73
2022-12-02T12:30:22.443Z,11.57
2022-12-02T12:33:07.805Z,12.20
2022-12-02T12:35:55.213Z,12.57
2022-12-02T12:38:43.077Z,12.13
2022-12-02T12:41:58.111Z,12.30
2022-12-02T12:44:36.128Z,12.33
2022-12-02T12:47:22.618Z,12.43
2022-12-02T12:50:09.242Z,12.30
2022-12-02T12:52:57.289Z,12.17
2022-12-02T12:55:42.586Z,12.90
2022-12-02T12:58:28.006Z,13.33
2022-12-02T13:01:20.149Z,12.63
2022-12-02T13:04:08.714Z,11.53
2022-12-02T13:06:56.932Z,12.17
2022-12-02T13:09:42.127Z,11.60
2022-12-02T13:12:29.550Z,13.23
2022-12-02T13:15:17.889Z,12.67
2022-12-02T13:18:04.117Z,11.57
2022-12-02T13:20:52.465Z,12.10
2022-12-02T13:23:40.000Z,11.10
2022-12-02T13:26:27.784Z,11.20
2022-12-02T13:29:12.886Z,12.70
2022-12-02T13:31:58.395Z,13.17
2022-12-02T13:34:43.876Z,11.83
2022-12-02T13:37:32.152Z,12.93
2022-12-02T13:40:19.035Z,11.90
2022-12-02T13:43:06.892Z,11.03
2022-12-02T13:45:54.387Z,11.77
2022-12-02T13:48:39.643Z,13.20
2022-12-02T13:51:25.334Z,11.83
2022-12-02T13:54:10.941Z,12.43
2022-12-02T13:56:59.547Z,11.27
2022-12-02T13:59:44.857Z,11.33
2022-12-02T14:02:30.259Z,12.10
2022-12-02T14:05:15.807Z,11.87
2022-12-02T14:08:01.069Z,11.47
2022-12-02T14:10:46.544Z,11.57
2022-12-02T14:13:33.744Z,11.30
2022-12-02T14:16:19.826Z,12.10
2022-12-02T14:19:06.091Z,10.93
2022-12-02T14:21:51.714Z,11.83
2022-12-02T14:24:37.369Z,12.40
2022-12-02T14:27:25.102Z,12.90
2022-12-02T14:30:13.811Z,13.70
2022-12-02T14:32:59.134Z,13.33
2022-12-02T14:35:44.685Z,13.57
2022-12-02T14:38:30.173Z,12.57
2022-12-02T14:41:18.750Z,12.20
2022-12-02T14:44:04.556Z,12.10
2022-12-02T14:46:52.175Z,13.50
2022-12-02T14:49:40.072Z,11.33
2022-12-02T14:52:28.326Z,13.27
2022-12-02T14:55:13.729Z,13.53
2022-12-02T14:57:58.979Z,12.97
2022-12-02T15:00:46.674Z,13.10
2022-12-02T15:03:32.035Z,13.30
2022-12-02T15:06:20.247Z,13.60
2022-12-02T15:09:05.677Z,12.47
2022-12-02T15:11:52.096Z,12.97
2022-12-02T15:14:37.787Z,14.57
2022-12-02T15:17:23.425Z,11.60
2022-12-02T15:20:10.039Z,12.70
2022-12-02T15:22:58.002Z,13.57
2022-12-02T15:25:43.406Z,10.97
2022-12-02T15:28:28.539Z,13.43
2022-12-02T15:31:17.875Z,12.33
2022-12-02T15:34:03.367Z,13.20
2022-12-02T15:36:51.469Z,12.10
2022-12-02T15:39:37.097Z,12.20
2022-12-02T15:42:22.690Z,11.73
2022-12-02T15:45:08.162Z,10.77
2022-12-02T15:47:56.180Z,12.20
2022-12-02T15:50:41.425Z,11.20
2022-12-02T15:53:27.033Z,12.23
2022-12-02T15:56:15.417Z,11.33
2022-12-02T15:59:03.948Z,11.63
2022-12-02T16:01:49.254Z,11.50
2022-12-02T16:04:34.973Z,10.37
2022-12-02T16:07:22.757Z,11.97
2022-12-02T16:10:09.147Z,11.17
2022-12-02T16:12:56.542Z,11.00
2022-12-02T16:15:41.940Z,11.40
2022-12-02T16:18:28.585Z,10.77
2022-12-02T16:21:13.860Z,11.80
2022-12-02T16:24:01.298Z,11.30
2022-12-02T16:26:50.819Z,11.57
2022-12-02T16:29:39.187Z,12.03
2022-12-02T16:32:25.303Z,11.60
2022-12-02T16:35:10.606Z,12.50
2022-12-02T16:38:01.362Z,11.30
2022-12-02T16:40:49.540Z,11.30
2022-12-02T16:43:37.678Z,11.50
2022-12-02T16:46:23.339Z,11.93
2022-12-02T16:49:09.945Z,12.90
2022-12-02T16:51:55.766Z,13.20
2022-12-02T16:54:43.548Z,14.07
2022-12-02T16:57:28.739Z,13.23
2022-12-02T17:00:14.879Z,12.07
2022-12-02T17:03:03.102Z,14.07
2022-12-02T17:05:48.870Z,12.60
2022-12-02T17:08:34.587Z,13.27
2022-12-02T17:11:19.608Z,13.83
2022-12-02T17:14:08.473Z,12.93
2022-12-02T17:16:53.808Z,14.33
2022-12-02T17:19:39.219Z,13.43
2022-12-02T17:22:24.746Z,13.67
2022-12-02T17:25:15.548Z,14.13
2022-12-02T17:28:00.606Z,14.53
2022-12-02T17:30:49.241Z,13.23
2022-12-02T17:33:34.615Z,13.23
2022-12-02T17:36:20.187Z,13.80
2022-12-02T17:39:08.180Z,14.23
2022-12-02T17:41:53.510Z,13.33
2022-12-02T17:44:38.878Z,13.80
2022-12-02T17:47:24.540Z,14.00
2022-12-02T17:50:14.829Z,13.87
2022-12-02T17:53:00.305Z,14.50
2022-12-02T17:55:46.102Z,13.20
2022-12-02T17:58:31.786Z,13.93
2022-12-02T18:01:19.997Z,14.07
2022-12-02T18:04:07.376Z,13.73
2022-12-02T18:06:53.221Z,14.60
2022-12-02T18:09:39.518Z,13.73
2022-12-02T18:12:25.134Z,14.70
2022-12-02T18:15:14.826Z,14.93
2022-12-02T18:18:01.137Z,14.57
2022-12-02T18:20:49.036Z,14.20
2022-12-02T18:23:34.927Z,13.53
2022-12-02T18:26:20.830Z,14.60
2022-12-02T18:29:06.115Z,14.07
2022-12-02T18:31:51.397Z,15.77
2022-12-02T18:34:36.600Z,15.33
2022-12-02T18:37:23.090Z,12.90
2022-12-02T18:40:08.877Z,14.70
2022-12-02T18:42:54.553Z,14.80
2022-12-02T18:45:42.908Z,15.90
2022-12-02T18:48:28.281Z,16.80
2022-12-02T18:51:15.743Z,15.10
2022-12-02T18:54:03.649Z,14.57
2022-12-02T18:56:50.019Z,14.30
2022-12-02T18:59:38.279Z,16.17
2022-12-02T19:02:24.253Z,14.97
2022-12-02T19:05:13.201Z,14.43
2022-12-02T19:08:00.672Z,13.80
2022-12-02T19:10:48.743Z,17.00
2022-12-02T19:13:34.513Z,15.20
2022-12-02T19:16:19.994Z,16.97
2022-12-02T19:19:06.173Z,14.43
2022-12-02T19:21:53.893Z,14.77
2022-12-02T19:24:41.584Z,15.30
2022-12-02T19:30:33.144Z,15.70
2022-12-02T19:33:19.333Z,15.80
2022-12-02T19:36:05.606Z,16.10
2022-12-02T19:38:51.199Z,16.63
2022-12-02T19:41:38.983Z,16.00
2022-12-02T19:44:24.302Z,14.50
2022-12-02T19:47:11.390Z,17.40
2022-12-02T19:49:59.372Z,15.57
2022-12-02T19:52:47.457Z,15.50
2022-12-02T19:55:32.874Z,16.47
2022-12-02T19:58:22.901Z,15.90
2022-12-02T20:01:09.033Z,16.87
2022-12-02T20:04:04.875Z,16.70
2022-12-02T20:07:02.907Z,17.50
2022-12-02T20:09:48.502Z,18.17
2022-12-02T20:12:36.598Z,16.07
2022-12-02T20:15:22.334Z,16.27
2022-12-02T20:18:09.691Z,16.63
2022-12-02T20:20:55.554Z,17.40
2022-12-02T20:23:43.698Z,17.90
2022-12-02T20:26:31.260Z,17.10
2022-12-02T20:29:16.470Z,18.10
2022-12-02T20:32:03.441Z,17.47
2022-12-02T20:34:48.947Z,17.27
2022-12-02T20:37:36.934Z,15.30
2022-12-02T20:40:22.879Z,16.73
2022-12-02T20:43:08.621Z,15.70
2022-12-02T20:45:54.111Z,15.90
2022-12-02T20:48:39.634Z,15.97
2022-12-02T20:51:27.569Z,15.40
2022-12-02T20:54:17.899Z,14.97
2022-12-02T20:57:07.009Z,16.50
2022-12-02T20:59:53.291Z,16.90
2022-12-02T21:02:39.326Z,15.30
2022-12-02T21:05:25.358Z,17.10
2022-12-02T21:08:10.913Z,17.20
2022-12-02T21:10:57.146Z,15.97
2022-12-02T21:13:43.490Z,15.07
2022-12-02T21:16:32.265Z,18.20
2022-12-02T21:19:18.935Z,15.87
2022-12-02T21:22:06.358Z,16.83
2022-12-02T21:24:53.358Z,17.37
2022-12-02T21:27:41.749Z,17.27
2022-12-02T21:30:27.547Z,17.70
2022-12-02T21:33:17.174Z,17.93
2022-12-02T21:36:02.897Z,16.20
2022-12-02T21:38:50.638Z,16.93
2022-12-02T21:41:38.763Z,16.77
2022-12-02T21:44:26.062Z,16.67
2022-12-02T21:47:11.382Z,17.83
2022-12-02T21:49:57.435Z,17.50
2022-12-02T21:52:45.501Z,16.50
2022-12-02T21:55:31.236Z,16.20
2022-12-02T21:58:16.639Z,16.27
2022-12-02T22:01:21.636Z,18.37
2022-12-02T22:04:08.868Z,16.20
2022-12-02T22:07:14.044Z,16.43
2022-12-02T22:09:59.674Z,16.13
2022-12-02T22:12:46.154Z,16.77
2022-12-02T22:15:31.548Z,17.80
2022-12-02T22:18:17.545Z,16.20
2022-12-02T22:21:03.685Z,16.77
2022-12-02T22:23:49.532Z,16.33
2022-12-02T22:26:35.720Z,17.23
2022-12-02T22:29:21.207Z,17.20
2022-12-02T22:32:06.741Z,16.37
2022-12-02T22:34:52.578Z,15.80
2022-12-02T22:37:37.829Z,16.83
2022-12-02T22:40:25.235Z,15.70
2022-12-02T22:43:10.554Z,17.60
2022-12-02T22:45:56.064Z,17.30
2022-12-02T22:48:46.317Z,16.47
2022-12-02T22:51:35.467Z,17.87
2022-12-02T22:54:21.474Z,16.03
2022-12-02T22:57:06.769Z,17.27
2022-12-02T22:59:54.625Z,15.60
2022-12-02T23:02:44.409Z,16.37
2022-12-02T23:05:30.214Z,15.93
2022-12-02T23:08:15.790Z,14.30
2022-12-02T23:11:03.408Z,14.70
2022-12-02T23:13:48.782Z,17.93
2022-12-02T23:16:34.756Z,15.77
2022-12-02T23:19:20.286Z,15.20
2022-12-02T23:22:05.778Z,15.93
2022-12-02T23:24:53.954Z,15.97
2022-12-02T23:27:39.413Z,16.70
2022-12-02T23:30:29.973Z,16.47
2022-12-02T23:33:20.245Z,15.80
2022-12-02T23:36:08.967Z,16.60
2022-12-02T23:38:54.458Z,13.97
2022-12-02T23:41:39.835Z,15.93
2022-12-02T23:44:25.385Z,15.03
2022-12-02T23:47:13.233Z,16.30
2022-12-02T23:49:58.485Z,14.37
2022-12-02T23:52:46.889Z,14.80
2022-12-02T23:55:34.563Z,14.30
2022-12-02T23:58:20.135Z,14.67
